sensor_id;sensor_type;location;lat;lon;timestamp;P1;durP1;ratioP1;P2;durP2;ratioP2
6017;SDS011;3037;51.068;13.780;2022-08-21T00:02:16;51.40;;;34.03;;
6017;SDS011;3037;51.068;13.780;2022-08-21T00:04:46;42.87;;;31.47;;
6017;SDS011;3037;51.068;13.780;2022-08-21T00:07:13;46.17;;;31.97;;
6017;SDS011;3037;51.068;13.780;2022-08-21T00:09:38;49.77;;;35.80;;
6017;SDS011;3037;51.068;13.780;2022-08-21T00:12:04;50.50;;;33.30;;
6017;SDS011;3037;51.068;13.780;2022-08-21T00:14:30;50.10;;;35.80;;
6017;SDS011;3037;51.068;13.780;2022-08-21T00:16:56;57.30;;;36.20;;
6017;SDS011;3037;51.068;13.780;2022-08-21T00:19:23;49.60;;;34.20;;
6017;SDS011;3037;51.068;13.780;2022-08-21T00:21:49;45.97;;;33.67;;
6017;SDS011;3037;51.068;13.780;2022-08-21T00:24:19;52.63;;;36.63;;
6017;SDS011;3037;51.068;13.780;2022-08-21T00:26:45;50.27;;;33.83;;
6017;SDS011;3037;51.068;13.780;2022-08-21T00:29:12;52.77;;;34.50;;
6017;SDS011;3037;51.068;13.780;2022-08-21T00:31:38;61.23;;;36.90;;
6017;SDS011;3037;51.068;13.780;2022-08-21T00:34:04;50.03;;;35.60;;
6017;SDS011;3037;51.068;13.780;2022-08-21T00:36:32;62.90;;;39.00;;
6017;SDS011;3037;51.068;13.780;2022-08-21T00:38:58;53.27;;;38.87;;
6017;SDS011;3037;51.068;13.780;2022-08-21T00:41:24;57.93;;;38.80;;
6017;SDS011;3037;51.068;13.780;2022-08-21T00:43:50;61.70;;;38.93;;
6017;SDS011;3037;51.068;13.780;2022-08-21T00:46:16;58.23;;;39.07;;
6017;SDS011;3037;51.068;13.780;2022-08-21T00:48:42;54.53;;;38.10;;
6017;SDS011;3037;51.068;13.780;2022-08-21T00:51:12;58.63;;;38.17;;
6017;SDS011;3037;51.068;13.780;2022-08-21T00:53:43;62.40;;;37.40;;
6017;SDS011;3037;51.068;13.780;2022-08-21T00:56:11;59.30;;;38.73;;
6017;SDS011;3037;51.068;13.780;2022-08-21T00:58:39;60.30;;;37.97;;
6017;SDS011;3037;51.068;13.780;2022-08-21T01:01:07;54.70;;;37.90;;
6017;SDS011;3037;51.068;13.780;2022-08-21T01:03:33;61.40;;;39.60;;
6017;SDS011;3037;51.068;13.780;2022-08-21T01:06:00;68.43;;;41.80;;
6017;SDS011;3037;51.068;13.780;2022-08-21T01:08:26;60.57;;;38.93;;
6017;SDS011;3037;51.068;13.780;2022-08-21T01:10:54;70.53;;;41.83;;
6017;SDS011;3037;51.068;13.780;2022-08-21T01:13:20;74.93;;;41.27;;
6017;SDS011;3037;51.068;13.780;2022-08-21T01:15:49;77.23;;;43.80;;
6017;SDS011;3037;51.068;13.780;2022-08-21T01:18:17;70.23;;;42.57;;
6017;SDS011;3037;51.068;13.780;2022-08-21T01:20:50;56.43;;;38.73;;
6017;SDS011;3037;51.068;13.780;2022-08-21T01:23:35;52.30;;;34.87;;
6017;SDS011;3037;51.068;13.780;2022-08-21T01:26:03;56.53;;;36.37;;
6017;SDS011;3037;51.068;13.780;2022-08-21T01:28:30;51.37;;;36.03;;
6017;SDS011;3037;51.068;13.780;2022-08-21T01:30:59;57.37;;;35.87;;
6017;SDS011;3037;51.068;13.780;2022-08-21T01:33:27;51.30;;;33.97;;
6017;SDS011;3037;51.068;13.780;2022-08-21T01:35:53;50.50;;;33.00;;
6017;SDS011;3037;51.068;13.780;2022-08-21T01:38:18;38.97;;;29.53;;
6017;SDS011;3037;51.068;13.780;2022-08-21T01:40:44;41.13;;;27.53;;
6017;SDS011;3037;51.068;13.780;2022-08-21T01:43:10;31.93;;;25.63;;
6017;SDS011;3037;51.068;13.780;2022-08-21T01:45:36;31.27;;;22.17;;
6017;SDS011;3037;51.068;13.780;2022-08-21T01:48:02;30.23;;;22.77;;
6017;SDS011;3037;51.068;13.780;2022-08-21T01:50:28;28.87;;;21.73;;
6017;SDS011;3037;51.068;13.780;2022-08-21T01:52:54;28.20;;;21.20;;
6017;SDS011;3037;51.068;13.780;2022-08-21T01:55:22;24.53;;;19.10;;
6017;SDS011;3037;51.068;13.780;2022-08-21T01:57:48;24.50;;;18.87;;
6017;SDS011;3037;51.068;13.780;2022-08-21T02:00:16;21.77;;;18.70;;
6017;SDS011;3037;51.068;13.780;2022-08-21T02:02:43;23.70;;;17.43;;
6017;SDS011;3037;51.068;13.780;2022-08-21T02:05:10;23.60;;;17.93;;
6017;SDS011;3037;51.068;13.780;2022-08-21T02:07:41;25.00;;;18.07;;
6017;SDS011;3037;51.068;13.780;2022-08-21T02:10:10;22.30;;;17.67;;
6017;SDS011;3037;51.068;13.780;2022-08-21T02:12:40;25.03;;;18.97;;
6017;SDS011;3037;51.068;13.780;2022-08-21T02:15:06;27.03;;;18.33;;
6017;SDS011;3037;51.068;13.780;2022-08-21T02:17:44;23.43;;;18.27;;
6017;SDS011;3037;51.068;13.780;2022-08-21T02:20:17;20.80;;;17.50;;
6017;SDS011;3037;51.068;13.780;2022-08-21T02:22:51;21.63;;;17.73;;
6017;SDS011;3037;51.068;13.780;2022-08-21T02:25:17;24.70;;;17.33;;
6017;SDS011;3037;51.068;13.780;2022-08-21T02:27:45;23.90;;;18.60;;
6017;SDS011;3037;51.068;13.780;2022-08-21T02:30:23;22.57;;;17.70;;
6017;SDS011;3037;51.068;13.780;2022-08-21T02:32:50;24.03;;;17.73;;
6017;SDS011;3037;51.068;13.780;2022-08-21T02:35:16;28.00;;;18.87;;
6017;SDS011;3037;51.068;13.780;2022-08-21T02:37:48;23.73;;;18.33;;
6017;SDS011;3037;51.068;13.780;2022-08-21T02:40:19;21.73;;;17.70;;
6017;SDS011;3037;51.068;13.780;2022-08-21T02:42:47;21.40;;;18.17;;
6017;SDS011;3037;51.068;13.780;2022-08-21T02:45:13;20.53;;;18.20;;
6017;SDS011;3037;51.068;13.780;2022-08-21T02:47:40;24.63;;;18.63;;
6017;SDS011;3037;51.068;13.780;2022-08-21T02:50:13;21.00;;;17.70;;
6017;SDS011;3037;51.068;13.780;2022-08-21T02:52:38;25.40;;;18.20;;
6017;SDS011;3037;51.068;13.780;2022-08-21T02:55:05;21.43;;;16.90;;
6017;SDS011;3037;51.068;13.780;2022-08-21T02:57:31;25.87;;;18.50;;
6017;SDS011;3037;51.068;13.780;2022-08-21T02:59:57;20.53;;;17.13;;
6017;SDS011;3037;51.068;13.780;2022-08-21T03:02:23;23.80;;;17.97;;
6017;SDS011;3037;51.068;13.780;2022-08-21T03:04:48;20.10;;;16.50;;
6017;SDS011;3037;51.068;13.780;2022-08-21T03:07:14;26.20;;;17.40;;
6017;SDS011;3037;51.068;13.780;2022-08-21T03:09:40;22.67;;;18.20;;
6017;SDS011;3037;51.068;13.780;2022-08-21T03:12:05;20.73;;;17.87;;
6017;SDS011;3037;51.068;13.780;2022-08-21T03:14:31;22.67;;;18.40;;
6017;SDS011;3037;51.068;13.780;2022-08-21T03:16:57;23.33;;;19.00;;
6017;SDS011;3037;51.068;13.780;2022-08-21T03:19:22;22.03;;;17.30;;
6017;SDS011;3037;51.068;13.780;2022-08-21T03:21:48;22.03;;;18.07;;
6017;SDS011;3037;51.068;13.780;2022-08-21T03:24:13;25.90;;;18.90;;
6017;SDS011;3037;51.068;13.780;2022-08-21T03:26:39;26.77;;;20.80;;
6017;SDS011;3037;51.068;13.780;2022-08-21T03:29:04;20.00;;;17.50;;
6017;SDS011;3037;51.068;13.780;2022-08-21T03:31:32;20.70;;;17.17;;
6017;SDS011;3037;51.068;13.780;2022-08-21T03:33:57;24.33;;;18.60;;
6017;SDS011;3037;51.068;13.780;2022-08-21T03:36:23;35.27;;;18.37;;
6017;SDS011;3037;51.068;13.780;2022-08-21T03:38:49;28.30;;;18.33;;
6017;SDS011;3037;51.068;13.780;2022-08-21T03:41:15;37.23;;;21.93;;
6017;SDS011;3037;51.068;13.780;2022-08-21T03:43:40;33.07;;;20.53;;
6017;SDS011;3037;51.068;13.780;2022-08-21T03:46:06;40.93;;;21.50;;
6017;SDS011;3037;51.068;13.780;2022-08-21T03:48:33;31.67;;;19.90;;
6017;SDS011;3037;51.068;13.780;2022-08-21T03:51:00;31.07;;;21.37;;
6017;SDS011;3037;51.068;13.780;2022-08-21T03:53:25;29.00;;;21.70;;
6017;SDS011;3037;51.068;13.780;2022-08-21T03:55:51;30.17;;;22.23;;
6017;SDS011;3037;51.068;13.780;2022-08-21T03:58:19;29.30;;;20.83;;
6017;SDS011;3037;51.068;13.780;2022-08-21T04:00:47;28.73;;;20.83;;
6017;SDS011;3037;51.068;13.780;2022-08-21T04:03:14;29.87;;;20.37;;
6017;SDS011;3037;51.068;13.780;2022-08-21T04:05:40;25.87;;;20.80;;
6017;SDS011;3037;51.068;13.780;2022-08-21T04:08:06;28.00;;;21.13;;
6017;SDS011;3037;51.068;13.780;2022-08-21T04:10:33;29.43;;;21.13;;
6017;SDS011;3037;51.068;13.780;2022-08-21T04:13:00;27.37;;;22.20;;
6017;SDS011;3037;51.068;13.780;2022-08-21T04:15:27;33.60;;;21.33;;
6017;SDS011;3037;51.068;13.780;2022-08-21T04:17:53;28.47;;;20.27;;
6017;SDS011;3037;51.068;13.780;2022-08-21T04:20:19;28.90;;;18.87;;
6017;SDS011;3037;51.068;13.780;2022-08-21T04:22:46;23.73;;;19.63;;
6017;SDS011;3037;51.068;13.780;2022-08-21T04:25:12;25.17;;;19.40;;
6017;SDS011;3037;51.068;13.780;2022-08-21T04:27:39;27.27;;;20.27;;
6017;SDS011;3037;51.068;13.780;2022-08-21T04:30:08;26.13;;;19.70;;
6017;SDS011;3037;51.068;13.780;2022-08-21T04:32:35;24.83;;;20.03;;
6017;SDS011;3037;51.068;13.780;2022-08-21T04:35:03;27.77;;;20.63;;
6017;SDS011;3037;51.068;13.780;2022-08-21T04:37:32;29.27;;;22.00;;
6017;SDS011;3037;51.068;13.780;2022-08-21T04:39:57;28.70;;;20.77;;
6017;SDS011;3037;51.068;13.780;2022-08-21T04:42:24;22.60;;;18.80;;
6017;SDS011;3037;51.068;13.780;2022-08-21T04:44:50;28.63;;;20.00;;
6017;SDS011;3037;51.068;13.780;2022-08-21T04:47:16;29.33;;;20.17;;
6017;SDS011;3037;51.068;13.780;2022-08-21T04:49:42;28.47;;;19.57;;
6017;SDS011;3037;51.068;13.780;2022-08-21T04:52:09;27.90;;;20.30;;
6017;SDS011;3037;51.068;13.780;2022-08-21T04:54:36;29.40;;;19.70;;
6017;SDS011;3037;51.068;13.780;2022-08-21T04:57:02;35.17;;;20.33;;
6017;SDS011;3037;51.068;13.780;2022-08-21T04:59:36;23.93;;;20.53;;
6017;SDS011;3037;51.068;13.780;2022-08-21T05:02:05;23.67;;;20.20;;
6017;SDS011;3037;51.068;13.780;2022-08-21T05:04:33;26.50;;;18.50;;
6017;SDS011;3037;51.068;13.780;2022-08-21T05:07:02;31.50;;;20.67;;
6017;SDS011;3037;51.068;13.780;2022-08-21T05:09:31;28.57;;;20.10;;
6017;SDS011;3037;51.068;13.780;2022-08-21T05:11:57;27.90;;;19.07;;
6017;SDS011;3037;51.068;13.780;2022-08-21T05:14:23;22.50;;;17.70;;
6017;SDS011;3037;51.068;13.780;2022-08-21T05:16:48;27.97;;;19.30;;
6017;SDS011;3037;51.068;13.780;2022-08-21T05:19:14;28.37;;;19.77;;
6017;SDS011;3037;51.068;13.780;2022-08-21T05:21:40;21.80;;;17.23;;
6017;SDS011;3037;51.068;13.780;2022-08-21T05:24:08;29.80;;;19.40;;
6017;SDS011;3037;51.068;13.780;2022-08-21T05:26:35;31.37;;;19.47;;
6017;SDS011;3037;51.068;13.780;2022-08-21T05:29:01;26.27;;;18.70;;
6017;SDS011;3037;51.068;13.780;2022-08-21T05:31:28;23.13;;;19.40;;
6017;SDS011;3037;51.068;13.780;2022-08-21T05:33:53;25.63;;;17.63;;
6017;SDS011;3037;51.068;13.780;2022-08-21T05:36:19;21.87;;;17.90;;
6017;SDS011;3037;51.068;13.780;2022-08-21T05:38:44;23.70;;;18.00;;
6017;SDS011;3037;51.068;13.780;2022-08-21T05:41:10;23.40;;;18.50;;
6017;SDS011;3037;51.068;13.780;2022-08-21T05:43:36;24.20;;;18.70;;
6017;SDS011;3037;51.068;13.780;2022-08-21T05:46:02;25.00;;;19.80;;
6017;SDS011;3037;51.068;13.780;2022-08-21T05:48:29;29.43;;;18.47;;
6017;SDS011;3037;51.068;13.780;2022-08-21T05:50:55;21.33;;;17.90;;
6017;SDS011;3037;51.068;13.780;2022-08-21T05:53:22;19.73;;;17.63;;
6017;SDS011;3037;51.068;13.780;2022-08-21T05:55:48;27.07;;;18.70;;
6017;SDS011;3037;51.068;13.780;2022-08-21T05:58:16;23.50;;;18.10;;
6017;SDS011;3037;51.068;13.780;2022-08-21T06:00:45;21.70;;;17.87;;
6017;SDS011;3037;51.068;13.780;2022-08-21T06:03:13;30.57;;;20.20;;
6017;SDS011;3037;51.068;13.780;2022-08-21T06:05:44;23.57;;;19.20;;
6017;SDS011;3037;51.068;13.780;2022-08-21T06:08:10;30.93;;;20.20;;
6017;SDS011;3037;51.068;13.780;2022-08-21T06:10:36;26.10;;;19.63;;
6017;SDS011;3037;51.068;13.780;2022-08-21T06:13:02;30.03;;;20.97;;
6017;SDS011;3037;51.068;13.780;2022-08-21T06:15:29;27.87;;;21.47;;
6017;SDS011;3037;51.068;13.780;2022-08-21T06:17:55;28.20;;;21.00;;
6017;SDS011;3037;51.068;13.780;2022-08-21T06:20:20;27.40;;;21.50;;
6017;SDS011;3037;51.068;13.780;2022-08-21T06:22:46;25.50;;;21.67;;
6017;SDS011;3037;51.068;13.780;2022-08-21T06:25:12;27.67;;;22.60;;
6017;SDS011;3037;51.068;13.780;2022-08-21T06:27:37;37.30;;;22.93;;
6017;SDS011;3037;51.068;13.780;2022-08-21T06:30:04;35.40;;;25.40;;
6017;SDS011;3037;51.068;13.780;2022-08-21T06:32:30;37.83;;;24.90;;
6017;SDS011;3037;51.068;13.780;2022-08-21T06:34:56;29.67;;;23.17;;
6017;SDS011;3037;51.068;13.780;2022-08-21T06:37:21;35.40;;;23.87;;
6017;SDS011;3037;51.068;13.780;2022-08-21T06:39:47;33.50;;;24.70;;
6017;SDS011;3037;51.068;13.780;2022-08-21T06:42:14;33.83;;;26.70;;
6017;SDS011;3037;51.068;13.780;2022-08-21T06:44:41;30.50;;;25.40;;
6017;SDS011;3037;51.068;13.780;2022-08-21T06:47:07;35.93;;;26.37;;
6017;SDS011;3037;51.068;13.780;2022-08-21T06:49:33;31.93;;;24.10;;
6017;SDS011;3037;51.068;13.780;2022-08-21T06:51:59;35.23;;;26.47;;
6017;SDS011;3037;51.068;13.780;2022-08-21T06:54:25;31.37;;;26.50;;
6017;SDS011;3037;51.068;13.780;2022-08-21T06:56:50;36.30;;;27.73;;
6017;SDS011;3037;51.068;13.780;2022-08-21T06:59:16;33.30;;;27.40;;
6017;SDS011;3037;51.068;13.780;2022-08-21T07:01:41;30.77;;;24.13;;
6017;SDS011;3037;51.068;13.780;2022-08-21T07:04:07;33.43;;;23.07;;
6017;SDS011;3037;51.068;13.780;2022-08-21T07:06:32;33.10;;;23.10;;
6017;SDS011;3037;51.068;13.780;2022-08-21T07:08:58;32.83;;;24.43;;
6017;SDS011;3037;51.068;13.780;2022-08-21T07:11:24;24.93;;;21.57;;
6017;SDS011;3037;51.068;13.780;2022-08-21T07:13:50;30.47;;;23.27;;
6017;SDS011;3037;51.068;13.780;2022-08-21T07:16:17;28.50;;;21.67;;
6017;SDS011;3037;51.068;13.780;2022-08-21T07:18:43;27.97;;;23.43;;
6017;SDS011;3037;51.068;13.780;2022-08-21T07:21:09;22.53;;;20.07;;
6017;SDS011;3037;51.068;13.780;2022-08-21T07:23:38;24.40;;;20.63;;
6017;SDS011;3037;51.068;13.780;2022-08-21T07:26:06;26.97;;;22.00;;
6017;SDS011;3037;51.068;13.780;2022-08-21T07:28:32;22.97;;;20.17;;
6017;SDS011;3037;51.068;13.780;2022-08-21T07:30:58;22.03;;;19.70;;
6017;SDS011;3037;51.068;13.780;2022-08-21T07:33:26;20.90;;;18.70;;
6017;SDS011;3037;51.068;13.780;2022-08-21T07:35:53;25.53;;;18.80;;
6017;SDS011;3037;51.068;13.780;2022-08-21T07:38:19;26.83;;;19.50;;
6017;SDS011;3037;51.068;13.780;2022-08-21T07:40:45;23.80;;;18.73;;
6017;SDS011;3037;51.068;13.780;2022-08-21T07:43:11;21.27;;;18.70;;
6017;SDS011;3037;51.068;13.780;2022-08-21T07:45:37;22.03;;;19.53;;
6017;SDS011;3037;51.068;13.780;2022-08-21T07:48:03;19.83;;;17.70;;
6017;SDS011;3037;51.068;13.780;2022-08-21T07:50:29;19.40;;;17.40;;
6017;SDS011;3037;51.068;13.780;2022-08-21T07:52:55;25.23;;;19.30;;
6017;SDS011;3037;51.068;13.780;2022-08-21T07:55:21;24.97;;;17.23;;
6017;SDS011;3037;51.068;13.780;2022-08-21T07:57:47;19.70;;;17.57;;
6017;SDS011;3037;51.068;13.780;2022-08-21T08:00:17;20.97;;;16.77;;
6017;SDS011;3037;51.068;13.780;2022-08-21T08:02:45;27.10;;;18.23;;
6017;SDS011;3037;51.068;13.780;2022-08-21T08:05:15;21.87;;;17.73;;
6017;SDS011;3037;51.068;13.780;2022-08-21T08:07:42;21.23;;;16.60;;
6017;SDS011;3037;51.068;13.780;2022-08-21T08:10:08;18.37;;;16.40;;
6017;SDS011;3037;51.068;13.780;2022-08-21T08:12:34;18.17;;;16.37;;
6017;SDS011;3037;51.068;13.780;2022-08-21T08:15:01;24.27;;;18.03;;
6017;SDS011;3037;51.068;13.780;2022-08-21T08:17:30;20.63;;;16.30;;
6017;SDS011;3037;51.068;13.780;2022-08-21T08:19:57;15.60;;;14.00;;
6017;SDS011;3037;51.068;13.780;2022-08-21T08:22:23;18.43;;;15.90;;
6017;SDS011;3037;51.068;13.780;2022-08-21T08:24:49;16.90;;;14.57;;
6017;SDS011;3037;51.068;13.780;2022-08-21T08:27:16;17.83;;;15.87;;
6017;SDS011;3037;51.068;13.780;2022-08-21T08:29:43;15.83;;;14.20;;
6017;SDS011;3037;51.068;13.780;2022-08-21T08:32:09;14.50;;;12.30;;
6017;SDS011;3037;51.068;13.780;2022-08-21T08:34:35;21.07;;;13.50;;
6017;SDS011;3037;51.068;13.780;2022-08-21T08:37:02;22.47;;;12.77;;
6017;SDS011;3037;51.068;13.780;2022-08-21T08:39:28;19.07;;;12.70;;
6017;SDS011;3037;51.068;13.780;2022-08-21T08:41:56;13.20;;;11.80;;
6017;SDS011;3037;51.068;13.780;2022-08-21T08:44:26;16.97;;;13.63;;
6017;SDS011;3037;51.068;13.780;2022-08-21T08:46:52;12.90;;;11.83;;
6017;SDS011;3037;51.068;13.780;2022-08-21T08:49:31;12.70;;;11.50;;
6017;SDS011;3037;51.068;13.780;2022-08-21T08:52:06;12.30;;;11.10;;
6017;SDS011;3037;51.068;13.780;2022-08-21T08:54:47;16.40;;;11.77;;
6017;SDS011;3037;51.068;13.780;2022-08-21T08:57:23;15.63;;;11.27;;
6017;SDS011;3037;51.068;13.780;2022-08-21T08:59:50;16.10;;;11.37;;
6017;SDS011;3037;51.068;13.780;2022-08-21T09:02:20;13.57;;;10.97;;
6017;SDS011;3037;51.068;13.780;2022-08-21T09:04:48;15.70;;;11.10;;
6017;SDS011;3037;51.068;13.780;2022-08-21T09:07:33;14.10;;;11.13;;
6017;SDS011;3037;51.068;13.780;2022-08-21T09:10:13;10.53;;;9.53;;
6017;SDS011;3037;51.068;13.780;2022-08-21T09:12:52;14.40;;;10.60;;
6017;SDS011;3037;51.068;13.780;2022-08-21T09:23:22;15.23;;;9.87;;
6017;SDS011;3037;51.068;13.780;2022-08-21T09:26:08;8.53;;;7.60;;
6017;SDS011;3037;51.068;13.780;2022-08-21T09:28:42;8.33;;;6.33;;
6017;SDS011;3037;51.068;13.780;2022-08-21T09:31:11;7.83;;;5.00;;
6017;SDS011;3037;51.068;13.780;2022-08-21T09:33:46;8.67;;;5.37;;
6017;SDS011;3037;51.068;13.780;2022-08-21T09:36:12;9.00;;;5.13;;
6017;SDS011;3037;51.068;13.780;2022-08-21T09:38:53;13.03;;;4.87;;
6017;SDS011;3037;51.068;13.780;2022-08-21T09:41:25;18.90;;;5.60;;
6017;SDS011;3037;51.068;13.780;2022-08-21T09:43:55;8.97;;;5.20;;
6017;SDS011;3037;51.068;13.780;2022-08-21T09:46:25;8.90;;;5.20;;
6017;SDS011;3037;51.068;13.780;2022-08-21T09:48:53;5.13;;;4.50;;
6017;SDS011;3037;51.068;13.780;2022-08-21T09:51:24;12.20;;;4.93;;
6017;SDS011;3037;51.068;13.780;2022-08-21T09:53:56;10.63;;;4.40;;
6017;SDS011;3037;51.068;13.780;2022-08-21T10:01:56;7.53;;;4.97;;
6017;SDS011;3037;51.068;13.780;2022-08-21T10:04:27;6.97;;;4.37;;
6017;SDS011;3037;51.068;13.780;2022-08-21T10:07:05;8.03;;;4.20;;
6017;SDS011;3037;51.068;13.780;2022-08-21T10:09:41;6.83;;;4.17;;
6017;SDS011;3037;51.068;13.780;2022-08-21T10:14:47;7.37;;;3.97;;
6017;SDS011;3037;51.068;13.780;2022-08-21T10:19:56;11.00;;;3.27;;
6017;SDS011;3037;51.068;13.780;2022-08-21T10:22:46;4.27;;;3.63;;
6017;SDS011;3037;51.068;13.780;2022-08-21T10:25:22;5.10;;;3.60;;
6017;SDS011;3037;51.068;13.780;2022-08-21T10:28:04;3.73;;;3.43;;
6017;SDS011;3037;51.068;13.780;2022-08-21T10:30:50;6.80;;;3.57;;
6017;SDS011;3037;51.068;13.780;2022-08-21T10:33:37;3.87;;;2.80;;
6017;SDS011;3037;51.068;13.780;2022-08-21T10:36:08;3.73;;;2.70;;
6017;SDS011;3037;51.068;13.780;2022-08-21T10:43:44;5.40;;;2.90;;
6017;SDS011;3037;51.068;13.780;2022-08-21T10:49:17;8.77;;;3.27;;
6017;SDS011;3037;51.068;13.780;2022-08-21T10:51:52;6.47;;;3.57;;
6017;SDS011;3037;51.068;13.780;2022-08-21T10:54:29;6.33;;;2.80;;
6017;SDS011;3037;51.068;13.780;2022-08-21T10:57:09;9.93;;;3.20;;
6017;SDS011;3037;51.068;13.780;2022-08-21T10:59:49;11.50;;;3.43;;
6017;SDS011;3037;51.068;13.780;2022-08-21T11:02:25;5.03;;;3.63;;
6017;SDS011;3037;51.068;13.780;2022-08-21T11:07:32;9.90;;;4.17;;
6017;SDS011;3037;51.068;13.780;2022-08-21T11:10:05;5.27;;;3.90;;
6017;SDS011;3037;51.068;13.780;2022-08-21T11:12:42;3.83;;;3.33;;
6017;SDS011;3037;51.068;13.780;2022-08-21T11:15:16;8.73;;;2.87;;
6017;SDS011;3037;51.068;13.780;2022-08-21T11:21:03;6.73;;;3.20;;
6017;SDS011;3037;51.068;13.780;2022-08-21T11:23:41;2.50;;;2.37;;
6017;SDS011;3037;51.068;13.780;2022-08-21T11:26:24;3.40;;;2.73;;
6017;SDS011;3037;51.068;13.780;2022-08-21T11:29:02;4.70;;;2.60;;
6017;SDS011;3037;51.068;13.780;2022-08-21T11:36:56;5.07;;;2.60;;
6017;SDS011;3037;51.068;13.780;2022-08-21T11:39:50;4.90;;;2.30;;
6017;SDS011;3037;51.068;13.780;2022-08-21T11:42:36;3.97;;;2.23;;
6017;SDS011;3037;51.068;13.780;2022-08-21T11:45:52;2.37;;;2.20;;
6017;SDS011;3037;51.068;13.780;2022-08-21T11:48:13;3.37;;;2.63;;
6017;SDS011;3037;51.068;13.780;2022-08-21T11:50:56;4.17;;;2.27;;
6017;SDS011;3037;51.068;13.780;2022-08-21T11:53:36;6.97;;;2.70;;
6017;SDS011;3037;51.068;13.780;2022-08-21T11:56:27;5.50;;;2.27;;
6017;SDS011;3037;51.068;13.780;2022-08-21T11:59:02;4.60;;;2.47;;
6017;SDS011;3037;51.068;13.780;2022-08-21T12:01:47;9.43;;;2.10;;
6017;SDS011;3037;51.068;13.780;2022-08-21T12:06:52;6.97;;;2.60;;
6017;SDS011;3037;51.068;13.780;2022-08-21T12:14:48;10.70;;;2.00;;
6017;SDS011;3037;51.068;13.780;2022-08-21T12:17:22;9.93;;;2.53;;
6017;SDS011;3037;51.068;13.780;2022-08-21T12:19:59;7.63;;;2.57;;
6017;SDS011;3037;51.068;13.780;2022-08-21T12:22:39;9.87;;;2.87;;
6017;SDS011;3037;51.068;13.780;2022-08-21T12:25:07;6.97;;;2.03;;
6017;SDS011;3037;51.068;13.780;2022-08-21T12:27:45;7.10;;;2.10;;
6017;SDS011;3037;51.068;13.780;2022-08-21T12:32:56;6.63;;;2.10;;
6017;SDS011;3037;51.068;13.780;2022-08-21T12:35:36;3.50;;;2.20;;
6017;SDS011;3037;51.068;13.780;2022-08-21T12:40:46;5.63;;;2.00;;
6017;SDS011;3037;51.068;13.780;2022-08-21T12:43:30;3.27;;;1.90;;
6017;SDS011;3037;51.068;13.780;2022-08-21T12:45:59;5.03;;;1.73;;
6017;SDS011;3037;51.068;13.780;2022-08-21T12:53:44;5.80;;;2.43;;
6017;SDS011;3037;51.068;13.780;2022-08-21T12:56:17;8.50;;;2.00;;
6017;SDS011;3037;51.068;13.780;2022-08-21T12:58:49;4.83;;;1.67;;
6017;SDS011;3037;51.068;13.780;2022-08-21T13:01:28;4.93;;;2.03;;
6017;SDS011;3037;51.068;13.780;2022-08-21T13:04:06;5.13;;;1.93;;
6017;SDS011;3037;51.068;13.780;2022-08-21T13:06:38;3.87;;;2.23;;
6017;SDS011;3037;51.068;13.780;2022-08-21T13:09:07;16.13;;;4.47;;
6017;SDS011;3037;51.068;13.780;2022-08-21T13:11:36;4.67;;;1.97;;
6017;SDS011;3037;51.068;13.780;2022-08-21T13:14:04;5.53;;;1.77;;
6017;SDS011;3037;51.068;13.780;2022-08-21T13:16:34;11.00;;;2.30;;
6017;SDS011;3037;51.068;13.780;2022-08-21T13:19:03;7.93;;;2.00;;
6017;SDS011;3037;51.068;13.780;2022-08-21T13:21:34;2.87;;;2.10;;
6017;SDS011;3037;51.068;13.780;2022-08-21T13:24:18;3.50;;;2.00;;
6017;SDS011;3037;51.068;13.780;2022-08-21T13:26:49;5.27;;;2.40;;
6017;SDS011;3037;51.068;13.780;2022-08-21T13:29:17;6.30;;;2.90;;
6017;SDS011;3037;51.068;13.780;2022-08-21T13:31:48;2.87;;;1.90;;
6017;SDS011;3037;51.068;13.780;2022-08-21T13:34:23;3.10;;;1.80;;
6017;SDS011;3037;51.068;13.780;2022-08-21T13:36:56;4.10;;;2.07;;
6017;SDS011;3037;51.068;13.780;2022-08-21T13:41:55;3.33;;;1.97;;
6017;SDS011;3037;51.068;13.780;2022-08-21T13:44:31;5.77;;;2.30;;
6017;SDS011;3037;51.068;13.780;2022-08-21T13:47:11;2.20;;;1.77;;
6017;SDS011;3037;51.068;13.780;2022-08-21T13:49:39;5.30;;;2.10;;
6017;SDS011;3037;51.068;13.780;2022-08-21T13:52:15;5.47;;;2.13;;
6017;SDS011;3037;51.068;13.780;2022-08-21T13:54:56;7.40;;;2.47;;
6017;SDS011;3037;51.068;13.780;2022-08-21T13:57:34;3.70;;;2.30;;
6017;SDS011;3037;51.068;13.780;2022-08-21T14:03:02;3.63;;;1.73;;
6017;SDS011;3037;51.068;13.780;2022-08-21T14:05:32;2.10;;;1.80;;
6017;SDS011;3037;51.068;13.780;2022-08-21T14:10:31;6.00;;;2.03;;
6017;SDS011;3037;51.068;13.780;2022-08-21T14:13:03;3.13;;;1.80;;
6017;SDS011;3037;51.068;13.780;2022-08-21T14:15:32;3.37;;;2.10;;
6017;SDS011;3037;51.068;13.780;2022-08-21T14:18:14;4.07;;;1.80;;
6017;SDS011;3037;51.068;13.780;2022-08-21T14:20:42;4.23;;;2.70;;
6017;SDS011;3037;51.068;13.780;2022-08-21T14:23:08;6.90;;;3.00;;
6017;SDS011;3037;51.068;13.780;2022-08-21T14:28:15;4.53;;;2.10;;
6017;SDS011;3037;51.068;13.780;2022-08-21T14:30:47;4.13;;;2.17;;
6017;SDS011;3037;51.068;13.780;2022-08-21T14:33:17;7.70;;;2.13;;
6017;SDS011;3037;51.068;13.780;2022-08-21T14:36:01;5.73;;;2.07;;
6017;SDS011;3037;51.068;13.780;2022-08-21T14:38:27;4.30;;;2.13;;
6017;SDS011;3037;51.068;13.780;2022-08-21T14:40:57;7.10;;;2.30;;
6017;SDS011;3037;51.068;13.780;2022-08-21T14:43:31;6.97;;;2.23;;
6017;SDS011;3037;51.068;13.780;2022-08-21T14:45:57;3.00;;;1.50;;
6017;SDS011;3037;51.068;13.780;2022-08-21T14:48:23;1.70;;;1.60;;
6017;SDS011;3037;51.068;13.780;2022-08-21T14:50:49;5.57;;;2.10;;
6017;SDS011;3037;51.068;13.780;2022-08-21T14:53:14;3.80;;;1.50;;
6017;SDS011;3037;51.068;13.780;2022-08-21T14:55:41;4.57;;;2.70;;
6017;SDS011;3037;51.068;13.780;2022-08-21T14:58:25;1.50;;;1.40;;
6017;SDS011;3037;51.068;13.780;2022-08-21T15:00:51;5.67;;;1.93;;
6017;SDS011;3037;51.068;13.780;2022-08-21T15:03:18;4.30;;;2.03;;
6017;SDS011;3037;51.068;13.780;2022-08-21T15:05:46;2.33;;;2.03;;
6017;SDS011;3037;51.068;13.780;2022-08-21T15:08:12;4.30;;;1.67;;
6017;SDS011;3037;51.068;13.780;2022-08-21T15:10:38;8.23;;;2.47;;
6017;SDS011;3037;51.068;13.780;2022-08-21T15:13:04;3.07;;;1.97;;
6017;SDS011;3037;51.068;13.780;2022-08-21T15:15:32;2.40;;;1.73;;
6017;SDS011;3037;51.068;13.780;2022-08-21T15:18:03;7.67;;;1.40;;
6017;SDS011;3037;51.068;13.780;2022-08-21T15:20:29;5.00;;;2.13;;
6017;SDS011;3037;51.068;13.780;2022-08-21T15:22:54;4.03;;;1.90;;
6017;SDS011;3037;51.068;13.780;2022-08-21T15:25:19;7.47;;;2.23;;
6017;SDS011;3037;51.068;13.780;2022-08-21T15:27:45;5.13;;;2.20;;
6017;SDS011;3037;51.068;13.780;2022-08-21T15:30:11;6.07;;;1.90;;
6017;SDS011;3037;51.068;13.780;2022-08-21T15:32:36;2.30;;;1.77;;
6017;SDS011;3037;51.068;13.780;2022-08-21T15:35:03;2.80;;;1.83;;
6017;SDS011;3037;51.068;13.780;2022-08-21T15:37:29;2.17;;;1.70;;
6017;SDS011;3037;51.068;13.780;2022-08-21T15:39:54;3.63;;;1.70;;
6017;SDS011;3037;51.068;13.780;2022-08-21T15:42:20;13.20;;;1.70;;
6017;SDS011;3037;51.068;13.780;2022-08-21T15:44:46;6.87;;;2.07;;
6017;SDS011;3037;51.068;13.780;2022-08-21T15:47:14;2.83;;;1.50;;
6017;SDS011;3037;51.068;13.780;2022-08-21T15:49:42;3.83;;;1.80;;
6017;SDS011;3037;51.068;13.780;2022-08-21T15:52:10;3.13;;;1.83;;
6017;SDS011;3037;51.068;13.780;2022-08-21T15:54:36;2.10;;;1.90;;
6017;SDS011;3037;51.068;13.780;2022-08-21T15:57:02;2.97;;;1.87;;
6017;SDS011;3037;51.068;13.780;2022-08-21T15:59:28;3.47;;;2.73;;
6017;SDS011;3037;51.068;13.780;2022-08-21T16:01:57;9.00;;;2.03;;
6017;SDS011;3037;51.068;13.780;2022-08-21T16:04:26;3.60;;;1.50;;